Time;durP1;ratioP1;P1;durP2;ratioP2;P2;SDS_P1;SDS_P2;PMS_P1;PMS_P2;Temp;Humidity;BMP_temperature;BMP_pressure;BME280_temperature;BME280_humidity;BME280_pressure;Samples;Min_cycle;Max_cycle;Signal;HPM_P1;HPM_P2
2022/05/18 00:00:58;;;;;;;0.30;0.20;;;14.40;99.90;;;;;;5093089;28;20448;-94
2022/05/18 00:03:29;;;;;;;0.30;0.20;;;14.40;99.90;;;;;;5078184;28;20464;-94
2022/05/18 00:05:56;;;;;;;0.40;0.20;;;14.30;99.90;;;;;;5074356;28;21116;-95
2022/05/18 00:08:23;;;;;;;0.30;0.20;;;14.30;99.90;;;;;;5070356;28;20548;-94
2022/05/18 00:10:51;;;;;;;0.30;0.20;;;14.30;99.90;;;;;;5069178;28;20981;-95
2022/05/18 00:13:20;;;;;;;0.30;0.20;;;14.20;99.90;;;;;;5074691;28;21176;-95
2022/05/18 00:15:47;;;;;;;0.40;0.30;;;14.20;99.90;;;;;;5067577;28;20453;-94
2022/05/18 00:18:15;;;;;;;0.30;0.20;;;14.20;99.90;;;;;;5069390;28;20958;-95
2022/05/18 00:20:42;;;;;;;0.30;0.20;;;14.10;99.90;;;;;;5065053;28;20460;-95
2022/05/18 00:23:09;;;;;;;0.30;0.20;;;14.20;99.90;;;;;;5068343;28;20540;-94
2022/05/18 00:25:39;;;;;;;0.30;0.20;;;14.10;99.90;;;;;;5070219;28;20569;-95
2022/05/18 00:28:07;;;;;;;0.30;0.20;;;14.10;99.90;;;;;;5065323;28;20986;-94
2022/05/18 00:30:38;;;;;;;0.30;0.20;;;14.10;99.90;;;;;;5065864;28;20535;-94
2022/05/18 00:33:06;;;;;;;0.30;0.20;;;14.10;99.90;;;;;;5068930;28;20553;-94
2022/05/18 00:35:35;;;;;;;0.57;0.30;;;14.10;99.90;;;;;;5067487;28;20558;-94
2022/05/18 00:38:02;;;;;;;0.30;0.20;;;14.00;99.90;;;;;;5066413;28;20522;-94
2022/05/18 00:40:29;;;;;;;0.30;0.20;;;14.00;99.90;;;;;;5069376;28;20467;-94
2022/05/18 00:42:57;;;;;;;0.30;0.20;;;14.00;99.90;;;;;;5075064;28;20467;-94
2022/05/18 00:45:24;;;;;;;0.30;0.20;;;14.00;99.90;;;;;;5072049;28;20546;-94
2022/05/18 00:47:52;;;;;;;0.30;0.20;;;13.90;99.90;;;;;;5068466;28;20553;-94
2022/05/18 00:50:22;;;;;;;0.30;0.20;;;13.90;99.90;;;;;;5070166;28;20474;-93
2022/05/18 00:52:53;;;;;;;0.30;0.20;;;13.80;99.90;;;;;;5063522;28;20464;-94
2022/05/18 00:55:24;;;;;;;0.30;0.20;;;13.80;99.90;;;;;;5065372;28;20543;-94
2022/05/18 00:57:57;;;;;;;0.30;0.20;;;13.70;99.90;;;;;;5068283;28;20448;-94
2022/05/18 01:00:24;;;;;;;0.30;0.20;;;13.70;99.90;;;;;;5067239;28;20917;-94
2022/05/18 01:03:00;;;;;;;0.30;0.20;;;13.60;99.90;;;;;;5069442;28;20523;-95
2022/05/18 01:05:30;;;;;;;0.30;0.20;;;13.50;99.90;;;;;;5065957;28;20826;-94
2022/05/18 01:07:59;;;;;;;0.30;0.20;;;13.50;99.90;;;;;;5063242;28;21031;-93
2022/05/18 01:10:29;;;;;;;0.30;0.20;;;13.40;99.90;;;;;;5066989;28;20904;-94
2022/05/18 01:12:56;;;;;;;0.40;0.30;;;13.30;99.90;;;;;;5083301;28;20472;-94
2022/05/18 01:15:24;;;;;;;0.30;0.20;;;13.30;99.90;;;;;;5081804;28;20479;-94
2022/05/18 01:17:58;;;;;;;0.30;0.20;;;13.20;99.90;;;;;;5067934;28;20462;-94
2022/05/18 01:20:28;;;;;;;0.30;0.20;;;13.10;99.90;;;;;;5071958;28;20502;-94
2022/05/18 01:23:08;;;;;;;0.97;0.97;;;13.00;99.90;;;;;;5066036;28;20463;-94
2022/05/18 01:25:48;;;;;;;0.30;0.20;;;13.10;99.90;;;;;;5070407;28;20485;-93
2022/05/18 01:28:17;;;;;;;0.30;0.20;;;13.00;99.90;;;;;;5065241;28;21052;-94
2022/05/18 01:30:48;;;;;;;0.30;0.20;;;12.90;99.90;;;;;;5066676;28;20530;-94
2022/05/18 01:33:17;;;;;;;0.53;0.40;;;12.90;99.90;;;;;;5067939;28;20462;-94
2022/05/18 01:35:48;;;;;;;0.30;0.20;;;12.90;99.90;;;;;;5067244;28;20459;-94
2022/05/18 01:38:16;;;;;;;0.30;0.20;;;12.90;99.90;;;;;;5073100;28;20486;-94
2022/05/18 01:40:52;;;;;;;0.30;0.20;;;12.90;99.90;;;;;;5067359;28;20539;-94
2022/05/18 01:43:24;;;;;;;0.30;0.20;;;12.90;99.90;;;;;;5074164;28;20465;-94
2022/05/18 01:45:52;;;;;;;0.30;0.20;;;12.80;99.90;;;;;;5071905;28;20970;-94
2022/05/18 01:48:22;;;;;;;0.30;0.20;;;12.90;99.90;;;;;;5072954;28;20450;-94
2022/05/18 01:50:50;;;;;;;0.30;0.20;;;12.90;99.90;;;;;;5073013;28;20914;-94
2022/05/18 01:53:17;;;;;;;0.30;0.20;;;12.90;99.90;;;;;;5069787;28;20478;-94
2022/05/18 01:55:45;;;;;;;0.40;0.37;;;12.80;99.90;;;;;;5070068;28;20492;-94
2022/05/18 01:58:15;;;;;;;0.30;0.20;;;12.80;99.90;;;;;;5071824;28;20458;-93
2022/05/18 02:00:45;;;;;;;0.30;0.20;;;12.80;99.90;;;;;;5071262;28;20523;-94
2022/05/18 02:03:12;;;;;;;0.30;0.20;;;12.70;99.90;;;;;;5068850;28;20461;-94
2022/05/18 02:05:40;;;;;;;0.30;0.20;;;12.70;99.90;;;;;;5079678;28;20567;-94
2022/05/18 02:08:08;;;;;;;0.30;0.20;;;12.70;99.90;;;;;;5072553;28;20457;-94
2022/05/18 02:10:35;;;;;;;0.30;0.20;;;12.60;99.90;;;;;;5071304;28;20437;-93
2022/05/18 02:13:03;;;;;;;0.30;0.20;;;12.60;99.90;;;;;;5070131;28;20948;-94
2022/05/18 02:15:31;;;;;;;0.30;0.20;;;12.50;99.90;;;;;;5075171;28;21143;-95
2022/05/18 02:17:59;;;;;;;0.30;0.20;;;12.40;99.90;;;;;;5069657;28;20450;-94
2022/05/18 02:20:26;;;;;;;0.30;0.20;;;12.30;99.90;;;;;;5070338;28;20535;-94
2022/05/18 02:22:53;;;;;;;0.30;0.20;;;12.30;99.90;;;;;;5067462;28;20456;-93
2022/05/18 02:25:21;;;;;;;0.30;0.20;;;12.20;99.90;;;;;;5076037;28;20978;-94
2022/05/18 02:27:50;;;;;;;0.30;0.20;;;12.20;99.90;;;;;;5066664;28;21004;-94
2022/05/18 02:30:17;;;;;;;0.80;0.37;;;12.20;99.90;;;;;;5069822;28;20474;-94
2022/05/18 02:32:44;;;;;;;0.30;0.20;;;12.20;99.90;;;;;;5066422;28;20451;-94
2022/05/18 02:35:13;;;;;;;0.30;0.20;;;12.20;99.90;;;;;;5067965;28;20865;-94
2022/05/18 02:37:40;;;;;;;0.30;0.20;;;12.30;99.90;;;;;;5073560;28;20450;-94
2022/05/18 02:40:10;;;;;;;0.30;0.20;;;12.30;99.90;;;;;;5067967;28;20557;-94
2022/05/18 02:42:37;;;;;;;0.30;0.20;;;12.30;99.90;;;;;;5074088;28;20514;-94
2022/05/18 02:45:06;;;;;;;0.30;0.20;;;12.30;99.90;;;;;;5068172;28;20778;-94
2022/05/18 02:47:33;;;;;;;0.30;0.23;;;12.20;99.90;;;;;;5067787;28;20511;-94
2022/05/18 02:50:00;;;;;;;0.30;0.20;;;12.10;99.90;;;;;;5074420;28;20480;-94
2022/05/18 02:52:29;;;;;;;0.30;0.20;;;12.10;99.90;;;;;;5067674;28;20463;-94
2022/05/18 02:57:40;;;;;;;0.30;0.20;;;12.10;99.90;;;;;;5087976;28;21676;-94
2022/05/18 03:00:08;;;;;;;0.30;0.20;;;12.00;99.90;;;;;;5088984;28;20436;-94
2022/05/18 03:02:36;;;;;;;0.30;0.20;;;11.90;99.90;;;;;;5084767;28;20485;-93
2022/05/18 03:05:04;;;;;;;0.30;0.20;;;11.90;99.90;;;;;;5072481;28;20455;-92
2022/05/18 03:07:32;;;;;;;0.30;0.20;;;11.90;99.90;;;;;;5080707;28;20454;-93
2022/05/18 03:09:59;;;;;;;0.30;0.20;;;12.00;99.90;;;;;;5075188;28;20449;-94
2022/05/18 03:12:26;;;;;;;0.30;0.20;;;12.00;99.90;;;;;;5101519;28;20479;-94
2022/05/18 03:14:53;;;;;;;0.40;0.30;;;12.00;99.90;;;;;;5093309;28;20899;-94
2022/05/18 03:17:20;;;;;;;0.30;0.20;;;12.00;99.90;;;;;;5081057;28;20449;-94
2022/05/18 03:19:47;;;;;;;0.30;0.20;;;12.00;99.90;;;;;;5071602;28;20452;-94
2022/05/18 03:25:00;;;;;;;0.40;0.30;;;11.90;99.90;;;;;;5073090;28;20857;-94
2022/05/18 03:27:27;;;;;;;0.30;0.20;;;11.90;99.90;;;;;;5074306;28;20483;-93
2022/05/18 03:29:54;;;;;;;0.40;0.30;;;12.00;99.90;;;;;;5066115;28;20460;-93
2022/05/18 03:32:22;;;;;;;0.30;0.20;;;11.90;99.90;;;;;;5071001;28;20470;-94
2022/05/18 03:34:50;;;;;;;0.30;0.10;;;11.90;99.90;;;;;;5064949;28;20543;-94
2022/05/18 03:37:17;;;;;;;0.30;0.20;;;12.00;99.90;;;;;;5066135;28;20545;-93
2022/05/18 03:39:45;;;;;;;0.30;0.20;;;11.90;99.90;;;;;;5068694;28;20454;-94
2022/05/18 03:42:13;;;;;;;0.30;0.20;;;12.00;99.90;;;;;;5066697;28;20861;-94
2022/05/18 03:44:40;;;;;;;0.30;0.20;;;12.10;99.90;;;;;;5072608;28;20530;-94
2022/05/18 03:47:09;;;;;;;0.30;0.20;;;12.10;99.90;;;;;;5068547;28;20486;-93
2022/05/18 03:49:36;;;;;;;0.30;0.20;;;12.10;99.90;;;;;;5066672;28;20490;-94
2022/05/18 03:52:03;;;;;;;0.30;0.20;;;12.10;99.90;;;;;;5065965;28;20479;-93
2022/05/18 03:54:31;;;;;;;0.30;0.20;;;12.20;99.90;;;;;;5068757;28;20526;-94
2022/05/18 03:56:58;;;;;;;0.30;0.10;;;12.10;99.90;;;;;;5069682;28;20437;-94
2022/05/18 03:59:26;;;;;;;0.30;0.20;;;12.10;99.90;;;;;;5067104;28;21108;-93
2022/05/18 04:01:53;;;;;;;0.80;0.60;;;12.10;99.90;;;;;;5068738;28;20463;-94
2022/05/18 04:04:21;;;;;;;0.30;0.20;;;12.30;99.90;;;;;;5074589;28;20598;-94
2022/05/18 04:06:48;;;;;;;0.40;0.27;;;12.30;99.90;;;;;;5066218;28;20536;-93
2022/05/18 04:09:15;;;;;;;0.30;0.20;;;12.30;99.90;;;;;;5066000;28;20515;-94
2022/05/18 04:11:42;;;;;;;0.30;0.20;;;12.30;99.90;;;;;;5066707;28;20972;-94
2022/05/18 04:14:09;;;;;;;0.30;0.20;;;12.30;99.90;;;;;;5065844;28;20514;-94
2022/05/18 04:16:37;;;;;;;0.40;0.20;;;12.30;99.90;;;;;;5065709;28;20462;-95
2022/05/18 04:19:04;;;;;;;0.30;0.20;;;12.30;99.90;;;;;;5067319;28;20511;-94
2022/05/18 04:21:31;;;;;;;0.30;0.20;;;12.40;99.90;;;;;;5066677;28;20499;-94
2022/05/18 04:23:59;;;;;;;0.30;0.20;;;12.50;99.90;;;;;;5066959;28;20917;-94
2022/05/18 04:26:26;;;;;;;0.30;0.20;;;12.50;99.90;;;;;;5067044;28;21162;-93
2022/05/18 04:28:53;;;;;;;1.17;0.50;;;12.50;99.90;;;;;;5073822;28;20453;-95
2022/05/18 04:31:20;;;;;;;0.70;0.33;;;12.50;99.90;;;;;;5066190;28;20535;-94
2022/05/18 04:33:49;;;;;;;0.30;0.20;;;12.50;99.90;;;;;;5065874;28;20600;-94
2022/05/18 04:36:16;;;;;;;0.30;0.20;;;12.60;99.90;;;;;;5067675;28;20458;-94
2022/05/18 04:38:42;;;;;;;0.30;0.20;;;12.70;99.90;;;;;;5065719;28;20595;-94
2022/05/18 04:41:11;;;;;;;0.30;0.20;;;12.90;99.90;;;;;;5067026;28;20520;-95
2022/05/18 04:43:38;;;;;;;0.30;0.20;;;13.10;99.90;;;;;;5066665;28;20503;-94
2022/05/18 04:46:07;;;;;;;0.30;0.20;;;13.30;99.90;;;;;;5064847;28;20484;-94
2022/05/18 04:48:35;;;;;;;0.30;0.20;;;13.60;99.90;;;;;;5066645;28;20468;-94
2022/05/18 04:51:05;;;;;;;0.97;0.40;;;13.70;99.90;;;;;;5066213;28;20543;-94
2022/05/18 04:53:34;;;;;;;0.30;0.20;;;13.60;99.90;;;;;;5069778;28;20547;-94
2022/05/18 04:56:01;;;;;;;0.30;0.20;;;13.60;99.90;;;;;;5075053;28;20468;-94
2022/05/18 04:58:28;;;;;;;0.30;0.20;;;13.50;99.90;;;;;;5075044;28;20509;-94
2022/05/18 05:00:59;;;;;;;0.57;0.57;;;13.50;99.90;;;;;;5061514;28;20983;-94
2022/05/18 05:03:26;;;;;;;0.30;0.20;;;13.70;99.90;;;;;;5066269;28;20994;-94
2022/05/18 05:05:53;;;;;;;0.30;0.20;;;13.80;99.90;;;;;;5066713;28;20482;-94
2022/05/18 05:08:22;;;;;;;0.30;0.20;;;13.90;99.90;;;;;;5067714;28;20528;-93
2022/05/18 05:10:49;;;;;;;1.37;0.43;;;14.10;99.90;;;;;;5069628;28;20878;-94
2022/05/18 05:13:16;;;;;;;0.30;0.20;;;14.10;99.90;;;;;;5071002;28;20528;-93
2022/05/18 05:15:44;;;;;;;0.30;0.20;;;14.30;99.90;;;;;;5070568;28;20995;-94
2022/05/18 05:18:11;;;;;;;0.30;0.20;;;14.20;99.90;;;;;;5071049;28;20458;-94
2022/05/18 05:20:38;;;;;;;0.30;0.20;;;14.30;99.90;;;;;;5076557;28;20539;-93
2022/05/18 05:23:06;;;;;;;1.07;1.07;;;14.40;99.90;;;;;;5069145;28;20498;-93
2022/05/18 05:25:34;;;;;;;0.30;0.20;;;14.40;99.90;;;;;;5075627;28;20447;-93
2022/05/18 05:28:02;;;;;;;0.30;0.20;;;14.50;99.90;;;;;;5068885;28;20505;-93
2022/05/18 05:30:28;;;;;;;0.30;0.20;;;14.50;99.90;;;;;;5076521;28;20471;-93
2022/05/18 05:32:56;;;;;;;0.30;0.20;;;14.40;99.90;;;;;;5073782;28;20521;-93
2022/05/18 05:35:23;;;;;;;0.30;0.20;;;14.40;99.90;;;;;;5068521;28;20464;-93
2022/05/18 05:37:50;;;;;;;0.30;0.20;;;14.50;99.90;;;;;;5070873;28;21087;-94
2022/05/18 05:40:17;;;;;;;0.30;0.20;;;14.60;99.90;;;;;;5068858;28;20450;-92
2022/05/18 05:42:46;;;;;;;0.30;0.20;;;14.60;99.90;;;;;;5073730;28;21269;-94
2022/05/18 05:45:13;;;;;;;0.40;0.30;;;14.70;99.90;;;;;;5067257;28;20805;-92
2022/05/18 05:47:40;;;;;;;0.30;0.20;;;14.70;99.90;;;;;;5070345;28;20569;-93
2022/05/18 05:50:09;;;;;;;0.30;0.20;;;15.00;99.90;;;;;;5070987;28;21106;-92
2022/05/18 05:52:36;;;;;;;0.40;0.30;;;14.90;99.90;;;;;;5070361;28;21274;-93
2022/05/18 05:55:03;;;;;;;0.30;0.20;;;14.90;99.90;;;;;;5070902;28;20496;-93
2022/05/18 05:57:30;;;;;;;0.53;0.40;;;15.00;99.90;;;;;;5075917;28;20528;-93
2022/05/18 06:00:00;;;;;;;0.40;0.33;;;15.20;99.90;;;;;;5077824;28;20509;-93
2022/05/18 06:02:27;;;;;;;0.30;0.20;;;15.40;99.90;;;;;;5085524;28;20543;-93
2022/05/18 06:04:55;;;;;;;0.30;0.20;;;15.40;99.90;;;;;;5072737;28;21865;-93
2022/05/18 06:07:22;;;;;;;0.30;0.20;;;15.40;99.90;;;;;;5070543;28;20488;-93
2022/05/18 06:09:49;;;;;;;2.20;1.53;;;15.40;99.90;;;;;;5068128;28;20467;-93
2022/05/18 06:12:16;;;;;;;0.40;0.40;;;15.60;99.90;;;;;;5066590;28;20460;-93
2022/05/18 06:14:45;;;;;;;0.30;0.20;;;15.80;99.90;;;;;;5069341;28;20461;-92
2022/05/18 06:17:13;;;;;;;0.57;0.57;;;15.90;99.90;;;;;;5072263;28;20450;-92
2022/05/18 06:19:40;;;;;;;0.57;0.27;;;16.00;99.90;;;;;;5072202;28;20470;-92
2022/05/18 06:22:07;;;;;;;0.30;0.20;;;16.20;99.90;;;;;;5065641;28;20470;-92
2022/05/18 06:24:35;;;;;;;0.30;0.20;;;16.30;99.90;;;;;;5072326;28;20884;-93
2022/05/18 06:27:02;;;;;;;0.30;0.20;;;16.50;99.90;;;;;;5073338;28;20493;-93
2022/05/18 06:29:29;;;;;;;0.30;0.20;;;16.60;99.90;;;;;;5077974;28;20924;-94
2022/05/18 06:31:57;;;;;;;0.60;0.60;;;16.80;99.90;;;;;;5073476;28;20984;-95
2022/05/18 06:34:25;;;;;;;0.30;0.20;;;16.80;99.90;;;;;;5075720;28;20462;-93
2022/05/18 06:36:52;;;;;;;0.30;0.20;;;16.70;99.90;;;;;;5075408;28;20446;-96
2022/05/18 06:39:20;;;;;;;0.30;0.20;;;16.70;99.90;;;;;;5077068;28;20545;-95
2022/05/18 06:41:48;;;;;;;0.30;0.20;;;16.90;99.90;;;;;;5092143;28;20464;-93
2022/05/18 06:44:15;;;;;;;0.40;0.30;;;17.10;99.90;;;;;;5098188;28;20466;-94
2022/05/18 06:46:43;;;;;;;0.30;0.20;;;17.10;99.90;;;;;;5086215;28;20479;-94
2022/05/18 06:49:12;;;;;;;0.33;0.23;;;17.30;99.90;;;;;;5079811;28;20443;-94
2022/05/18 06:51:43;;;;;;;0.30;0.20;;;17.40;99.90;;;;;;5078540;28;20551;-94
2022/05/18 06:54:12;;;;;;;0.30;0.20;;;17.50;99.90;;;;;;5076077;28;20534;-94
2022/05/18 06:56:41;;;;;;;0.40;0.30;;;17.50;99.90;;;;;;5074414;28;20661;-94
2022/05/18 06:59:09;;;;;;;0.33;0.30;;;17.50;99.90;;;;;;5070763;28;21018;-94
2022/05/18 07:01:37;;;;;;;0.30;0.20;;;17.30;99.90;;;;;;5074129;28;20839;-94
2022/05/18 07:04:05;;;;;;;0.30;0.20;;;17.50;99.90;;;;;;5072097;28;20521;-95
2022/05/18 07:06:35;;;;;;;0.30;0.20;;;17.60;99.90;;;;;;5075249;28;20462;-94
2022/05/18 07:09:06;;;;;;;3.87;0.50;;;17.90;99.90;;;;;;5074625;28;20459;-94
2022/05/18 07:11:36;;;;;;;0.30;0.20;;;17.70;99.90;;;;;;5079540;28;20846;-95
2022/05/18 07:14:05;;;;;;;0.30;0.20;;;17.70;99.90;;;;;;5081711;28;20546;-94
2022/05/18 07:16:33;;;;;;;0.30;0.30;;;17.80;99.90;;;;;;5078990;28;20840;-94
2022/05/18 07:19:01;;;;;;;0.30;0.20;;;18.10;99.90;;;;;;5073166;28;20443;-95
2022/05/18 07:21:29;;;;;;;0.30;0.20;;;18.10;99.90;;;;;;5076163;28;20451;-94
2022/05/18 07:23:56;;;;;;;0.30;0.20;;;17.90;99.90;;;;;;5074044;28;20580;-94
2022/05/18 07:26:26;;;;;;;0.30;0.30;;;17.90;99.90;;;;;;5073427;28;20440;-93
2022/05/18 07:28:53;;;;;;;0.33;0.23;;;18.10;99.90;;;;;;5075854;28;20846;-95
2022/05/18 07:31:20;;;;;;;0.30;0.20;;;18.50;99.90;;;;;;5073409;28;20452;-95
2022/05/18 07:33:48;;;;;;;0.30;0.20;;;18.50;99.70;;;;;;5072421;28;20455;-94
2022/05/18 07:36:16;;;;;;;0.30;0.20;;;18.20;99.20;;;;;;5066282;28;21295;-94
2022/05/18 07:38:43;;;;;;;0.50;0.20;;;18.20;99.40;;;;;;5068907;28;20929;-95
2022/05/18 07:41:12;;;;;;;0.30;0.20;;;18.20;97.90;;;;;;5084173;28;20474;-95
2022/05/18 07:43:41;;;;;;;0.30;0.20;;;18.30;97.10;;;;;;5075807;28;20908;-94
2022/05/18 07:46:09;;;;;;;0.33;0.20;;;18.50;97.80;;;;;;5078249;28;20463;-94
2022/05/18 07:48:38;;;;;;;0.50;0.50;;;18.90;97.70;;;;;;5079591;28;20539;-95
2022/05/18 07:51:05;;;;;;;0.30;0.20;;;18.70;94.70;;;;;;5078356;28;20550;-95
2022/05/18 07:53:32;;;;;;;0.40;0.30;;;18.60;95.40;;;;;;5079595;28;20475;-95
2022/05/18 07:55:59;;;;;;;0.40;0.20;;;18.70;94.80;;;;;;5070926;28;20515;-95
2022/05/18 07:58:26;;;;;;;0.40;0.20;;;19.00;93.70;;;;;;5076809;28;20458;-95
2022/05/18 08:00:56;;;;;;;0.40;0.30;;;18.80;91.20;;;;;;5070742;28;20471;-94
2022/05/18 08:03:23;;;;;;;0.40;0.23;;;19.30;93.00;;;;;;5070460;28;20919;-94
2022/05/18 08:05:50;;;;;;;0.33;0.20;;;19.00;92.70;;;;;;5070003;28;20511;-95
2022/05/18 08:08:19;;;;;;;0.40;0.20;;;19.10;92.70;;;;;;5069774;28;20506;-94
2022/05/18 08:16:19;;;;;;;0.40;0.20;;;18.80;92.20;;;;;;5070519;28;20462;-93
2022/05/18 08:18:48;;;;;;;0.30;0.20;;;19.10;92.00;;;;;;5078997;28;20521;-95
2022/05/18 08:21:16;;;;;;;0.40;0.20;;;19.00;92.10;;;;;;5067189;28;20461;-96
2022/05/18 08:23:43;;;;;;;0.30;0.20;;;19.20;92.00;;;;;;5068649;28;20548;-94
2022/05/18 08:26:10;;;;;;;0.50;0.30;;;19.50;92.50;;;;;;5069612;28;20566;-94
2022/05/18 08:28:38;;;;;;;0.37;0.30;;;19.20;90.20;;;;;;5067254;28;20488;-92
2022/05/18 08:31:05;;;;;;;0.90;0.40;;;19.40;91.30;;;;;;5063685;28;20571;-91
2022/05/18 08:33:34;;;;;;;0.40;0.30;;;19.40;85.40;;;;;;5063908;28;20922;-91
2022/05/18 08:36:02;;;;;;;0.40;0.20;;;19.20;90.10;;;;;;5063563;28;20462;-92
2022/05/18 08:38:29;;;;;;;0.40;0.20;;;19.30;89.40;;;;;;5067638;28;20511;-91
2022/05/18 08:41:02;;;;;;;0.40;0.40;;;19.40;90.90;;;;;;5067353;28;20807;-92
2022/05/18 08:43:33;;;;;;;0.40;0.30;;;19.50;90.20;;;;;;5066247;28;20524;-91
2022/05/18 08:46:10;;;;;;;1.17;1.03;;;19.20;82.30;;;;;;5066378;28;20905;-92
2022/05/18 08:48:49;;;;;;;0.40;0.20;;;19.60;84.70;;;;;;5080541;28;20482;-92
2022/05/18 08:51:37;;;;;;;0.40;0.20;;;19.70;81.80;;;;;;5074170;28;20467;-92
2022/05/18 08:54:14;;;;;;;0.40;0.20;;;19.90;77.90;;;;;;5085816;28;20560;-92
2022/05/18 08:56:43;;;;;;;0.37;0.20;;;19.90;75.00;;;;;;5089118;28;20451;-92
2022/05/18 08:59:15;;;;;;;0.40;0.30;;;19.90;74.70;;;;;;5072087;28;20458;-91
2022/05/18 09:01:46;;;;;;;0.40;0.30;;;19.60;75.80;;;;;;5067129;28;20450;-91
2022/05/18 09:04:17;;;;;;;0.40;0.20;;;19.80;76.00;;;;;;5071637;28;20464;-91
2022/05/18 09:06:49;;;;;;;0.40;0.20;;;19.90;76.50;;;;;;5067880;28;20469;-91
2022/05/18 09:12:10;;;;;;;0.40;0.20;;;20.40;80.00;;;;;;5069611;28;20456;-91
2022/05/18 09:14:39;;;;;;;0.40;0.20;;;20.20;79.40;;;;;;5080765;28;20549;-92
2022/05/18 09:17:19;;;;;;;0.40;0.20;;;20.20;74.80;;;;;;5073913;28;20766;-92
2022/05/18 09:19:57;;;;;;;0.40;0.20;;;20.30;73.80;;;;;;5077025;28;20444;-93
2022/05/18 09:22:32;;;;;;;0.40;0.30;;;20.50;74.10;;;;;;5072222;28;20528;-95
2022/05/18 09:25:14;;;;;;;0.40;0.20;;;20.30;71.70;;;;;;5077049;28;20481;-93
2022/05/18 09:28:00;;;;;;;0.40;0.20;;;20.40;75.60;;;;;;5080655;28;20544;-92
2022/05/18 09:30:39;;;;;;;0.40;0.20;;;20.50;73.60;;;;;;5080851;28;20497;-93
2022/05/18 09:33:27;;;;;;;0.40;0.23;;;20.70;75.90;;;;;;5073287;28;20936;-92
2022/05/18 09:36:20;;;;;;;0.40;0.30;;;20.80;75.20;;;;;;5067389;28;20466;-92
2022/05/18 09:38:54;;;;;;;0.40;0.20;;;20.40;74.80;;;;;;5064753;28;20464;-93
2022/05/18 09:41:23;;;;;;;0.40;0.20;;;20.20;78.60;;;;;;5071475;28;20511;-93
2022/05/18 09:43:58;;;;;;;0.40;0.20;;;20.30;74.30;;;;;;5083820;28;20511;-93
2022/05/18 09:46:29;;;;;;;0.40;0.30;;;20.10;78.30;;;;;;5066864;28;20461;-94
2022/05/18 09:49:01;;;;;;;0.30;0.20;;;20.10;78.10;;;;;;5071407;28;20502;-94
2022/05/18 09:51:30;;;;;;;0.40;0.20;;;20.30;81.10;;;;;;5068711;28;20462;-94
2022/05/18 09:54:00;;;;;;;0.40;0.20;;;20.50;78.10;;;;;;5081296;28;20913;-93
2022/05/18 09:56:31;;;;;;;0.37;0.20;;;21.00;78.40;;;;;;5071785;28;20474;-92
2022/05/18 09:59:06;;;;;;;0.73;0.73;;;20.80;75.70;;;;;;5080234;28;21150;-93
2022/05/18 10:07:31;;;;;;;0.40;0.20;;;20.60;77.20;;;;;;5110407;28;20467;-93
2022/05/18 10:10:09;;;;;;;0.40;0.20;;;20.80;77.00;;;;;;5082600;28;20558;-96
2022/05/18 10:12:41;;;;;;;0.40;0.20;;;20.60;71.60;;;;;;5073163;28;20469;-95
2022/05/18 10:15:20;;;;;;;0.83;0.30;;;20.60;71.20;;;;;;5068898;28;20544;-95
2022/05/18 10:17:51;;;;;;;0.40;0.20;;;20.70;72.50;;;;;;5070017;28;20467;-95
2022/05/18 10:20:25;;;;;;;0.40;0.20;;;21.00;74.60;;;;;;5086787;28;20527;-95
2022/05/18 10:22:55;;;;;;;0.40;0.20;;;21.10;73.30;;;;;;5090147;28;20466;-95
2022/05/18 10:25:32;;;;;;;0.40;0.20;;;21.20;73.00;;;;;;5072828;28;20512;-95
2022/05/18 10:28:03;;;;;;;0.40;0.20;;;20.80;69.40;;;;;;5070107;28;21199;-95
2022/05/18 10:30:36;;;;;;;0.40;0.20;;;21.00;77.90;;;;;;5073079;28;20928;-95
2022/05/18 10:33:07;;;;;;;0.40;0.20;;;21.10;68.80;;;;;;5076652;28;21084;-96
2022/05/18 10:35:48;;;;;;;0.40;0.20;;;21.50;67.80;;;;;;5074586;28;20527;-95
2022/05/18 10:38:35;;;;;;;0.40;0.20;;;21.20;63.80;;;;;;5074040;28;20460;-93
2022/05/18 10:41:13;;;;;;;0.40;0.20;;;21.20;65.30;;;;;;5083503;28;20517;-93
2022/05/18 10:43:43;;;;;;;0.40;0.20;;;21.10;64.80;;;;;;5069137;28;20497;-93
2022/05/18 10:46:13;;;;;;;0.40;0.20;;;21.10;61.70;;;;;;5080860;28;20475;-96
2022/05/18 10:48:50;;;;;;;0.40;0.20;;;21.40;67.00;;;;;;5072382;28;20489;-92
2022/05/18 10:51:29;;;;;;;0.40;0.20;;;21.60;63.30;;;;;;5066888;28;20826;-92
2022/05/18 10:54:10;;;;;;;0.40;0.20;;;21.20;65.00;;;;;;5083063;28;20933;-93
2022/05/18 10:56:37;;;;;;;0.40;0.20;;;21.40;66.00;;;;;;5067294;28;20497;-94
2022/05/18 10:59:32;;;;;;;0.40;0.20;;;21.80;66.90;;;;;;5069130;28;20461;-93
2022/05/18 11:02:05;;;;;;;0.40;0.20;;;21.50;59.20;;;;;;5067244;28;20528;-93
2022/05/18 11:04:42;;;;;;;0.40;0.20;;;21.40;57.30;;;;;;5073889;28;20536;-93
2022/05/18 11:07:09;;;;;;;0.40;0.20;;;21.40;60.50;;;;;;5065265;28;20557;-93
2022/05/18 11:09:41;;;;;;;0.40;0.20;;;21.40;58.40;;;;;;5077440;28;20581;-92
2022/05/18 11:12:17;;;;;;;0.40;0.30;;;21.40;61.10;;;;;;5066227;28;20448;-93
2022/05/18 11:14:50;;;;;;;0.40;0.20;;;21.50;60.80;;;;;;5079711;28;20469;-94
2022/05/18 11:17:31;;;;;;;0.40;0.20;;;21.70;62.10;;;;;;5066061;28;20499;-93
2022/05/18 11:20:08;;;;;;;0.40;0.20;;;21.30;58.30;;;;;;5066639;28;20443;-94
2022/05/18 11:22:47;;;;;;;0.40;0.20;;;21.70;62.20;;;;;;5066864;28;20459;-93
2022/05/18 11:25:23;;;;;;;0.40;0.40;;;21.50;57.10;;;;;;5077354;28;20454;-94
2022/05/18 11:27:53;;;;;;;0.40;0.20;;;21.60;60.00;;;;;;5084530;28;20454;-93
2022/05/18 11:30:24;;;;;;;0.40;0.20;;;21.90;61.60;;;;;;5079078;28;20463;-94
2022/05/18 11:33:04;;;;;;;0.40;0.20;;;22.20;63.10;;;;;;5068765;28;20580;-93
2022/05/18 11:35:47;;;;;;;0.40;0.20;;;22.30;61.60;;;;;;5065896;28;20455;-94
2022/05/18 11:38:41;;;;;;;0.40;0.20;;;22.20;62.20;;;;;;5065783;28;20822;-93
2022/05/18 11:41:30;;;;;;;0.40;0.20;;;22.20;57.00;;;;;;5067503;28;20506;-94
2022/05/18 11:44:03;;;;;;;0.50;0.30;;;22.10;60.60;;;;;;5077534;28;20482;-93
2022/05/18 11:47:04;;;;;;;0.40;0.20;;;22.00;59.00;;;;;;5093693;28;20540;-93
2022/05/18 11:49:41;;;;;;;0.40;0.20;;;21.90;61.70;;;;;;5093273;28;21250;-93
2022/05/18 11:52:25;;;;;;;0.40;0.20;;;21.80;65.20;;;;;;5074576;28;20532;-93
2022/05/18 11:55:12;;;;;;;0.40;0.30;;;21.60;61.10;;;;;;5072290;28;20463;-93
2022/05/18 11:57:48;;;;;;;0.40;0.20;;;21.70;63.20;;;;;;5066444;28;20837;-94
2022/05/18 12:00:39;;;;;;;0.40;0.20;;;21.90;64.70;;;;;;5081390;28;20451;-93
2022/05/18 12:03:30;;;;;;;0.40;0.20;;;22.00;62.00;;;;;;5080733;28;20488;-94
2022/05/18 12:06:19;;;;;;;0.50;0.30;;;22.10;62.10;;;;;;5082100;28;20443;-93
2022/05/18 12:09:08;;;;;;;0.40;0.20;;;21.90;62.20;;;;;;5085288;28;20563;-93
2022/05/18 12:11:47;;;;;;;0.40;0.20;;;21.90;60.20;;;;;;5071440;28;20537;-93
2022/05/18 12:14:31;;;;;;;0.40;0.20;;;21.60;58.90;;;;;;5064259;28;20858;-93
2022/05/18 12:17:06;;;;;;;0.40;0.20;;;21.90;63.40;;;;;;5065969;28;20467;-94
2022/05/18 12:19:38;;;;;;;0.50;0.30;;;21.90;63.10;;;;;;5065855;28;20841;-94
2022/05/18 12:22:09;;;;;;;1.13;0.30;;;22.40;63.80;;;;;;5065998;28;20512;-94
2022/05/18 12:24:38;;;;;;;0.40;0.20;;;22.60;60.40;;;;;;5072056;28;20988;-93
2022/05/18 12:27:07;;;;;;;0.40;0.20;;;22.30;58.80;;;;;;5065409;28;20517;-94
2022/05/18 12:29:36;;;;;;;0.40;0.20;;;22.40;59.30;;;;;;5065746;28;20483;-93
2022/05/18 12:32:05;;;;;;;0.40;0.20;;;22.10;57.60;;;;;;5065845;28;20456;-93
2022/05/18 12:34:44;;;;;;;0.40;0.20;;;22.40;58.90;;;;;;5065449;28;20505;-93
2022/05/18 12:37:24;;;;;;;0.40;0.20;;;22.40;58.70;;;;;;5069490;28;20543;-94
2022/05/18 12:40:05;;;;;;;0.40;0.20;;;22.50;59.60;;;;;;5076794;28;20539;-93
2022/05/18 12:42:37;;;;;;;0.40;0.30;;;22.70;58.30;;;;;;5077767;28;20474;-93
2022/05/18 12:45:14;;;;;;;0.40;0.20;;;22.70;56.60;;;;;;5082588;28;20858;-94
2022/05/18 12:47:46;;;;;;;0.40;0.20;;;22.60;58.40;;;;;;5079011;28;20937;-93
2022/05/18 12:50:17;;;;;;;0.40;0.20;;;22.70;58.60;;;;;;5070539;28;20487;-94
2022/05/18 12:52:52;;;;;;;0.50;0.40;;;22.90;58.50;;;;;;5078320;28;20446;-94
2022/05/18 12:55:35;;;;;;;0.40;0.20;;;23.10;58.90;;;;;;5082502;28;20855;-94
2022/05/18 12:58:24;;;;;;;0.60;0.40;;;23.10;59.80;;;;;;5069087;28;20497;-94
2022/05/18 13:01:01;;;;;;;0.40;0.20;;;22.60;58.60;;;;;;5071084;28;20506;-92
2022/05/18 13:03:50;;;;;;;0.40;0.20;;;22.50;58.40;;;;;;5080231;28;20458;-94
2022/05/18 13:06:22;;;;;;;0.40;0.20;;;22.70;59.70;;;;;;5076731;28;20771;-94
2022/05/18 13:09:05;;;;;;;0.40;0.20;;;23.10;59.00;;;;;;5083969;28;20497;-94
2022/05/18 13:11:47;;;;;;;0.50;0.30;;;23.20;57.90;;;;;;5062360;28;20467;-91
2022/05/18 13:14:30;;;;;;;0.40;0.20;;;22.90;55.00;;;;;;5062176;28;20531;-91
2022/05/18 13:17:23;;;;;;;0.40;0.20;;;22.60;57.60;;;;;;5070450;28;20458;-92
2022/05/18 13:20:00;;;;;;;0.40;0.20;;;22.40;55.10;;;;;;5083932;28;20523;-92
2022/05/18 13:23:00;;;;;;;0.40;0.20;;;23.00;57.00;;;;;;5075646;28;20467;-91
2022/05/18 13:25:29;;;;;;;0.40;0.30;;;22.70;54.30;;;;;;5038021;28;20433;-91
2022/05/18 13:27:59;;;;;;;0.40;0.20;;;22.80;54.50;;;;;;5080529;28;20452;-93